Accueil
METAR-TAF:

METAR-TAF

Aéroports :

Base aérienne Volkel-Uden

Uden, Pays-Bas

latitude: 51-39N, longitude: 005-42E, altitude: 22 m

Observation

Le bulletin a été fait il y a 43 minutes, à 06:55 UTC
Vent 5 kt de ouest/nord-ouest, variant entre ouest et nord-ouest
Température 11°C
Humidité 66%
Pression 1022 hPa
Visibilité 10 km ou plus
Nuages fragmentés à une hauteur de 4500 ft
Ciel couvert à une hauteur de 4900 ft

METAR: EHVK 140655Z AUTO 30005KT 260V320 9999 BKN045 OVC049 11/05 Q1022 BLU

Heure: 09:38 (07:38 UTC)

Prévision

Le bulletin a été fait il y a 3 heures et 0 minutes, à 04:38 UTC
Prévision valable du 14 à 05 UTC au 14 à 17 UTC
Vent 7 kt de ouest/nord-ouest
Visibilité 10 km ou plus
pas de nuages en-dessous de 1500 mètres et pas de cumulonimbus.

TAF: EHVK 140438Z 1405/1417 29007KT CAVOK

Observations et prévisions météorologiques de plus de 4000 aéroports (messages METAR et TAF).

Les stations disponibles sont représentées par des disques jaunes et rouges sur la carte.

Passer la souris dessus pour voir le nom de la station.

Cliquer dessus pour voir les observations et prévisions météorologiques.

Pour changer de carte: cliquez sur les boutons verts avec une croix noire pour zoomer, sur le bouton vert avec un tiret pour effectuer un zoom arrière, ou sur les flèches vertes pour les cartes adjacentes.


METAR-TAF: